sensor_id;sensor_type;location;lat;lon;timestamp;temperature;humidity
78463;SHT31;67756;51.982;5.648;2024-01-30T00:02:23;11.1;69.5
78463;SHT31;67756;51.982;5.648;2024-01-30T00:04:52;11.1;69.5
78463;SHT31;67756;51.982;5.648;2024-01-30T00:07:20;11.1;69.6
78463;SHT31;67756;51.982;5.648;2024-01-30T00:09:49;11.0;69.9
78463;SHT31;67756;51.982;5.648;2024-01-30T00:12:18;11.0;70.0
78463;SHT31;67756;51.982;5.648;2024-01-30T00:14:47;11.0;70.0
78463;SHT31;67756;51.982;5.648;2024-01-30T00:17:15;10.9;70.2
78463;SHT31;67756;51.982;5.648;2024-01-30T00:19:44;10.9;70.4
78463;SHT31;67756;51.982;5.648;2024-01-30T00:22:12;10.9;70.3
78463;SHT31;67756;51.982;5.648;2024-01-30T00:24:42;10.9;70.5
78463;SHT31;67756;51.982;5.648;2024-01-30T00:27:11;10.9;70.8
78463;SHT31;67756;51.982;5.648;2024-01-30T00:29:39;10.9;70.1
78463;SHT31;67756;51.982;5.648;2024-01-30T00:32:08;11.0;69.9
78463;SHT31;67756;51.982;5.648;2024-01-30T00:34:36;11.0;69.8
78463;SHT31;67756;51.982;5.648;2024-01-30T00:37:05;11.0;69.5
78463;SHT31;67756;51.982;5.648;2024-01-30T00:39:34;11.0;69.4
78463;SHT31;67756;51.982;5.648;2024-01-30T00:42:02;11.0;69.2
78463;SHT31;67756;51.982;5.648;2024-01-30T00:44:31;11.0;69.2
78463;SHT31;67756;51.982;5.648;2024-01-30T00:47:03;11.0;69.2
78463;SHT31;67756;51.982;5.648;2024-01-30T00:49:32;10.9;69.2
78463;SHT31;67756;51.982;5.648;2024-01-30T00:52:01;10.9;69.3
78463;SHT31;67756;51.982;5.648;2024-01-30T00:54:29;10.9;69.3
78463;SHT31;67756;51.982;5.648;2024-01-30T00:56:58;10.8;69.3
78463;SHT31;67756;51.982;5.648;2024-01-30T00:59:27;10.8;69.4
78463;SHT31;67756;51.982;5.648;2024-01-30T01:01:55;10.8;69.4
78463;SHT31;67756;51.982;5.648;2024-01-30T01:04:24;10.7;69.6
78463;SHT31;67756;51.982;5.648;2024-01-30T01:06:53;10.7;69.7
78463;SHT31;67756;51.982;5.648;2024-01-30T01:09:21;10.7;69.6
78463;SHT31;67756;51.982;5.648;2024-01-30T01:11:50;10.6;69.9
78463;SHT31;67756;51.982;5.648;2024-01-30T01:14:19;10.6;70.1
78463;SHT31;67756;51.982;5.648;2024-01-30T01:16:47;10.6;70.0
78463;SHT31;67756;51.982;5.648;2024-01-30T01:19:16;10.5;70.1
78463;SHT31;67756;51.982;5.648;2024-01-30T01:21:44;10.5;70.1
78463;SHT31;67756;51.982;5.648;2024-01-30T01:24:13;10.5;70.2
78463;SHT31;67756;51.982;5.648;2024-01-30T01:26:41;10.4;70.3
78463;SHT31;67756;51.982;5.648;2024-01-30T01:29:10;10.4;70.2
78463;SHT31;67756;51.982;5.648;2024-01-30T01:31:39;10.4;70.5
78463;SHT31;67756;51.982;5.648;2024-01-30T01:34:10;10.3;70.3
78463;SHT31;67756;51.982;5.648;2024-01-30T01:36:39;10.3;70.5
78463;SHT31;67756;51.982;5.648;2024-01-30T01:39:08;10.3;70.7
78463;SHT31;67756;51.982;5.648;2024-01-30T01:41:37;10.3;70.6
78463;SHT31;67756;51.982;5.648;2024-01-30T01:44:07;10.2;70.6
78463;SHT31;67756;51.982;5.648;2024-01-30T01:46:37;10.2;70.6
78463;SHT31;67756;51.982;5.648;2024-01-30T01:49:08;10.2;70.7
78463;SHT31;67756;51.982;5.648;2024-01-30T01:51:39;10.2;70.4
78463;SHT31;67756;51.982;5.648;2024-01-30T01:54:09;10.2;70.6
78463;SHT31;67756;51.982;5.648;2024-01-30T01:56:37;10.1;70.8
78463;SHT31;67756;51.982;5.648;2024-01-30T01:59:07;10.1;70.6
78463;SHT31;67756;51.982;5.648;2024-01-30T02:01:37;10.1;70.7
78463;SHT31;67756;51.982;5.648;2024-01-30T02:04:07;10.1;70.8
78463;SHT31;67756;51.982;5.648;2024-01-30T02:06:36;10.0;70.7
78463;SHT31;67756;51.982;5.648;2024-01-30T02:09:06;10.0;70.8
78463;SHT31;67756;51.982;5.648;2024-01-30T02:11:35;10.0;70.8
78463;SHT31;67756;51.982;5.648;2024-01-30T02:14:05;10.0;70.8
78463;SHT31;67756;51.982;5.648;2024-01-30T02:16:33;9.9;71.0
78463;SHT31;67756;51.982;5.648;2024-01-30T02:19:03;9.9;71.0
78463;SHT31;67756;51.982;5.648;2024-01-30T02:21:31;9.9;70.8
78463;SHT31;67756;51.982;5.648;2024-01-30T02:24:01;9.9;71.2
78463;SHT31;67756;51.982;5.648;2024-01-30T02:26:30;9.9;71.2
78463;SHT31;67756;51.982;5.648;2024-01-30T02:28:59;9.9;71.1
78463;SHT31;67756;51.982;5.648;2024-01-30T02:31:27;9.9;71.1
78463;SHT31;67756;51.982;5.648;2024-01-30T02:33:56;9.9;71.1
78463;SHT31;67756;51.982;5.648;2024-01-30T02:36:24;9.8;71.2
78463;SHT31;67756;51.982;5.648;2024-01-30T02:38:53;9.8;71.0
78463;SHT31;67756;51.982;5.648;2024-01-30T02:41:21;9.8;70.8
78463;SHT31;67756;51.982;5.648;2024-01-30T02:43:50;9.8;70.9
78463;SHT31;67756;51.982;5.648;2024-01-30T02:46:18;9.8;70.9
78463;SHT31;67756;51.982;5.648;2024-01-30T02:48:47;9.8;71.2
78463;SHT31;67756;51.982;5.648;2024-01-30T02:51:16;9.8;71.1
78463;SHT31;67756;51.982;5.648;2024-01-30T02:53:45;9.9;71.0
78463;SHT31;67756;51.982;5.648;2024-01-30T02:56:14;9.9;70.7
78463;SHT31;67756;51.982;5.648;2024-01-30T02:58:44;9.9;70.6
78463;SHT31;67756;51.982;5.648;2024-01-30T03:01:13;9.9;70.4
78463;SHT31;67756;51.982;5.648;2024-01-30T03:03:41;9.9;70.4
78463;SHT31;67756;51.982;5.648;2024-01-30T03:06:10;10.0;70.4
78463;SHT31;67756;51.982;5.648;2024-01-30T03:08:39;10.0;70.1
78463;SHT31;67756;51.982;5.648;2024-01-30T03:11:08;10.0;70.0
78463;SHT31;67756;51.982;5.648;2024-01-30T03:13:36;10.0;70.0
78463;SHT31;67756;51.982;5.648;2024-01-30T03:16:08;10.0;70.0
78463;SHT31;67756;51.982;5.648;2024-01-30T03:18:36;10.0;69.8
78463;SHT31;67756;51.982;5.648;2024-01-30T03:21:05;10.0;69.9
78463;SHT31;67756;51.982;5.648;2024-01-30T03:23:34;10.0;69.9
78463;SHT31;67756;51.982;5.648;2024-01-30T03:26:02;10.0;70.1
78463;SHT31;67756;51.982;5.648;2024-01-30T03:28:33;10.0;69.8
78463;SHT31;67756;51.982;5.648;2024-01-30T03:31:01;10.0;70.0
78463;SHT31;67756;51.982;5.648;2024-01-30T03:33:30;10.0;70.1
78463;SHT31;67756;51.982;5.648;2024-01-30T03:36:02;10.0;69.9
78463;SHT31;67756;51.982;5.648;2024-01-30T03:38:31;10.0;70.0
78463;SHT31;67756;51.982;5.648;2024-01-30T03:41:00;10.0;69.8
78463;SHT31;67756;51.982;5.648;2024-01-30T03:43:31;10.0;70.1
78463;SHT31;67756;51.982;5.648;2024-01-30T03:46:03;10.0;69.9
78463;SHT31;67756;51.982;5.648;2024-01-30T03:48:31;10.0;69.9
78463;SHT31;67756;51.982;5.648;2024-01-30T03:51:00;10.0;69.8
78463;SHT31;67756;51.982;5.648;2024-01-30T03:53:29;10.0;70.0
78463;SHT31;67756;51.982;5.648;2024-01-30T03:55:57;10.0;69.9
78463;SHT31;67756;51.982;5.648;2024-01-30T03:58:26;10.0;69.8
78463;SHT31;67756;51.982;5.648;2024-01-30T04:00:55;10.0;69.7
78463;SHT31;67756;51.982;5.648;2024-01-30T04:03:24;10.0;70.0
78463;SHT31;67756;51.982;5.648;2024-01-30T04:05:53;10.0;69.8
78463;SHT31;67756;51.982;5.648;2024-01-30T04:08:24;10.0;70.1
78463;SHT31;67756;51.982;5.648;2024-01-30T04:10:54;10.0;69.9
78463;SHT31;67756;51.982;5.648;2024-01-30T04:13:23;10.0;69.9
78463;SHT31;67756;51.982;5.648;2024-01-30T04:15:52;10.0;69.8
78463;SHT31;67756;51.982;5.648;2024-01-30T04:18:21;10.0;69.8
78463;SHT31;67756;51.982;5.648;2024-01-30T04:20:50;10.0;70.0
78463;SHT31;67756;51.982;5.648;2024-01-30T04:23:19;10.0;70.0
78463;SHT31;67756;51.982;5.648;2024-01-30T04:25:47;10.0;70.1
78463;SHT31;67756;51.982;5.648;2024-01-30T04:28:16;9.9;70.1
78463;SHT31;67756;51.982;5.648;2024-01-30T04:30:45;9.9;70.1
78463;SHT31;67756;51.982;5.648;2024-01-30T04:33:13;9.9;70.1
78463;SHT31;67756;51.982;5.648;2024-01-30T04:35:43;9.9;70.2
78463;SHT31;67756;51.982;5.648;2024-01-30T04:38:12;9.9;70.1
78463;SHT31;67756;51.982;5.648;2024-01-30T04:40:41;9.9;70.2
78463;SHT31;67756;51.982;5.648;2024-01-30T04:43:09;9.9;70.4
78463;SHT31;67756;51.982;5.648;2024-01-30T04:45:38;9.9;70.2
78463;SHT31;67756;51.982;5.648;2024-01-30T04:48:09;9.9;70.3
78463;SHT31;67756;51.982;5.648;2024-01-30T04:50:37;9.9;70.4
78463;SHT31;67756;51.982;5.648;2024-01-30T04:53:07;10.0;70.4
78463;SHT31;67756;51.982;5.648;2024-01-30T04:55:36;10.0;70.2
78463;SHT31;67756;51.982;5.648;2024-01-30T04:58:05;10.0;70.4
78463;SHT31;67756;51.982;5.648;2024-01-30T05:00:34;10.0;70.6
78463;SHT31;67756;51.982;5.648;2024-01-30T05:03:02;10.0;70.4
78463;SHT31;67756;51.982;5.648;2024-01-30T05:05:31;10.0;70.6
78463;SHT31;67756;51.982;5.648;2024-01-30T05:07:59;10.1;70.4
78463;SHT31;67756;51.982;5.648;2024-01-30T05:10:28;10.1;70.4
78463;SHT31;67756;51.982;5.648;2024-01-30T05:12:57;10.1;70.7
78463;SHT31;67756;51.982;5.648;2024-01-30T05:15:25;10.1;70.6
78463;SHT31;67756;51.982;5.648;2024-01-30T05:17:54;10.1;70.4
78463;SHT31;67756;51.982;5.648;2024-01-30T05:20:23;10.2;70.4
78463;SHT31;67756;51.982;5.648;2024-01-30T05:22:54;10.2;70.2
78463;SHT31;67756;51.982;5.648;2024-01-30T05:25:23;10.2;70.2
78463;SHT31;67756;51.982;5.648;2024-01-30T05:27:51;10.3;70.0
78463;SHT31;67756;51.982;5.648;2024-01-30T05:30:21;10.3;70.0
78463;SHT31;67756;51.982;5.648;2024-01-30T05:32:50;10.3;69.8
78463;SHT31;67756;51.982;5.648;2024-01-30T05:35:19;10.3;69.8
78463;SHT31;67756;51.982;5.648;2024-01-30T05:37:50;10.3;69.9
78463;SHT31;67756;51.982;5.648;2024-01-30T05:40:20;10.3;69.9
78463;SHT31;67756;51.982;5.648;2024-01-30T05:42:49;10.3;69.9
78463;SHT31;67756;51.982;5.648;2024-01-30T05:45:18;10.3;69.9
78463;SHT31;67756;51.982;5.648;2024-01-30T05:47:46;10.3;70.0
78463;SHT31;67756;51.982;5.648;2024-01-30T05:50:15;10.3;70.0
78463;SHT31;67756;51.982;5.648;2024-01-30T05:52:46;10.3;70.1
78463;SHT31;67756;51.982;5.648;2024-01-30T05:55:15;10.3;70.1
78463;SHT31;67756;51.982;5.648;2024-01-30T05:57:43;10.3;70.3
78463;SHT31;67756;51.982;5.648;2024-01-30T06:00:13;10.3;70.5
78463;SHT31;67756;51.982;5.648;2024-01-30T06:02:42;10.3;70.6
78463;SHT31;67756;51.982;5.648;2024-01-30T06:05:11;10.3;70.6
78463;SHT31;67756;51.982;5.648;2024-01-30T06:07:39;10.3;70.5
78463;SHT31;67756;51.982;5.648;2024-01-30T06:10:09;10.3;70.6
78463;SHT31;67756;51.982;5.648;2024-01-30T06:12:38;10.3;70.8
78463;SHT31;67756;51.982;5.648;2024-01-30T06:15:07;10.3;70.9
78463;SHT31;67756;51.982;5.648;2024-01-30T06:17:38;10.4;70.9
78463;SHT31;67756;51.982;5.648;2024-01-30T06:20:07;10.4;70.8
78463;SHT31;67756;51.982;5.648;2024-01-30T06:22:36;10.4;70.9
78463;SHT31;67756;51.982;5.648;2024-01-30T06:25:05;10.4;70.8
78463;SHT31;67756;51.982;5.648;2024-01-30T06:27:34;10.4;70.7
78463;SHT31;67756;51.982;5.648;2024-01-30T06:30:03;10.4;70.6
78463;SHT31;67756;51.982;5.648;2024-01-30T06:32:32;10.5;70.6
78463;SHT31;67756;51.982;5.648;2024-01-30T06:35:01;10.5;70.6
78463;SHT31;67756;51.982;5.648;2024-01-30T06:37:29;10.5;70.7
78463;SHT31;67756;51.982;5.648;2024-01-30T06:39:58;10.5;70.5
78463;SHT31;67756;51.982;5.648;2024-01-30T06:42:26;10.5;70.5
78463;SHT31;67756;51.982;5.648;2024-01-30T06:44:55;10.5;70.5
78463;SHT31;67756;51.982;5.648;2024-01-30T06:47:24;10.5;70.5
78463;SHT31;67756;51.982;5.648;2024-01-30T06:49:52;10.6;70.4
78463;SHT31;67756;51.982;5.648;2024-01-30T06:52:21;10.6;70.5
78463;SHT31;67756;51.982;5.648;2024-01-30T06:54:49;10.6;70.4
78463;SHT31;67756;51.982;5.648;2024-01-30T06:57:18;10.6;70.5
78463;SHT31;67756;51.982;5.648;2024-01-30T06:59:47;10.6;70.5
78463;SHT31;67756;51.982;5.648;2024-01-30T07:02:15;10.6;70.5
78463;SHT31;67756;51.982;5.648;2024-01-30T07:04:45;10.6;70.4
78463;SHT31;67756;51.982;5.648;2024-01-30T07:07:14;10.6;70.4
78463;SHT31;67756;51.982;5.648;2024-01-30T07:09:43;10.6;70.3
78463;SHT31;67756;51.982;5.648;2024-01-30T07:12:11;10.6;70.4
78463;SHT31;67756;51.982;5.648;2024-01-30T07:14:42;10.7;70.3
78463;SHT31;67756;51.982;5.648;2024-01-30T07:17:11;10.7;70.4
78463;SHT31;67756;51.982;5.648;2024-01-30T07:19:39;10.7;70.4
78463;SHT31;67756;51.982;5.648;2024-01-30T07:22:08;10.7;70.3
78463;SHT31;67756;51.982;5.648;2024-01-30T07:24:36;10.7;70.3
78463;SHT31;67756;51.982;5.648;2024-01-30T07:27:11;10.7;70.3
78463;SHT31;67756;51.982;5.648;2024-01-30T07:29:40;10.7;70.3
78463;SHT31;67756;51.982;5.648;2024-01-30T07:32:08;10.7;70.3
78463;SHT31;67756;51.982;5.648;2024-01-30T07:34:37;10.8;70.3
78463;SHT31;67756;51.982;5.648;2024-01-30T07:37:05;10.8;70.5
78463;SHT31;67756;51.982;5.648;2024-01-30T07:39:36;10.8;70.5
78463;SHT31;67756;51.982;5.648;2024-01-30T07:42:05;10.8;70.3
78463;SHT31;67756;51.982;5.648;2024-01-30T07:44:34;10.9;70.3
78463;SHT31;67756;51.982;5.648;2024-01-30T07:47:03;10.9;70.2
78463;SHT31;67756;51.982;5.648;2024-01-30T07:49:32;10.9;70.2
78463;SHT31;67756;51.982;5.648;2024-01-30T07:52:02;10.9;70.2
78463;SHT31;67756;51.982;5.648;2024-01-30T07:54:34;10.9;70.3
78463;SHT31;67756;51.982;5.648;2024-01-30T07:57:17;11.0;70.4
78463;SHT31;67756;51.982;5.648;2024-01-30T07:59:46;11.0;70.4
78463;SHT31;67756;51.982;5.648;2024-01-30T08:02:14;11.0;70.5
78463;SHT31;67756;51.982;5.648;2024-01-30T08:04:43;11.0;70.6
78463;SHT31;67756;51.982;5.648;2024-01-30T08:07:15;11.0;70.7
78463;SHT31;67756;51.982;5.648;2024-01-30T08:09:43;11.0;70.7
78463;SHT31;67756;51.982;5.648;2024-01-30T08:12:12;11.1;70.8
78463;SHT31;67756;51.982;5.648;2024-01-30T08:14:41;11.1;70.9
78463;SHT31;67756;51.982;5.648;2024-01-30T08:17:11;11.1;70.9
78463;SHT31;67756;51.982;5.648;2024-01-30T08:19:39;11.1;71.0
78463;SHT31;67756;51.982;5.648;2024-01-30T08:22:08;11.1;71.3
78463;SHT31;67756;51.982;5.648;2024-01-30T08:24:37;11.2;71.5
78463;SHT31;67756;51.982;5.648;2024-01-30T08:27:07;11.3;71.2
78463;SHT31;67756;51.982;5.648;2024-01-30T08:29:37;11.4;71.0
78463;SHT31;67756;51.982;5.648;2024-01-30T08:32:07;11.4;70.7
78463;SHT31;67756;51.982;5.648;2024-01-30T08:34:36;11.5;70.6
78463;SHT31;67756;51.982;5.648;2024-01-30T08:37:05;11.5;70.6
78463;SHT31;67756;51.982;5.648;2024-01-30T08:39:34;11.6;70.5
78463;SHT31;67756;51.982;5.648;2024-01-30T08:42:03;11.6;70.4
78463;SHT31;67756;51.982;5.648;2024-01-30T08:44:32;11.6;70.3
78463;SHT31;67756;51.982;5.648;2024-01-30T08:47:01;11.6;70.3
78463;SHT31;67756;51.982;5.648;2024-01-30T08:49:29;11.7;70.3
78463;SHT31;67756;51.982;5.648;2024-01-30T08:51:58;11.7;70.3
78463;SHT31;67756;51.982;5.648;2024-01-30T08:54:26;11.7;70.3
78463;SHT31;67756;51.982;5.648;2024-01-30T08:56:55;11.7;70.4
78463;SHT31;67756;51.982;5.648;2024-01-30T08:59:24;11.7;70.5
78463;SHT31;67756;51.982;5.648;2024-01-30T09:01:53;11.7;70.5
78463;SHT31;67756;51.982;5.648;2024-01-30T09:04:26;11.8;70.6
78463;SHT31;67756;51.982;5.648;2024-01-30T09:06:56;11.8;70.6
78463;SHT31;67756;51.982;5.648;2024-01-30T09:09:25;11.8;70.7
78463;SHT31;67756;51.982;5.648;2024-01-30T09:11:53;11.8;70.6
78463;SHT31;67756;51.982;5.648;2024-01-30T09:14:22;11.9;70.7
78463;SHT31;67756;51.982;5.648;2024-01-30T09:16:50;11.9;70.7
78463;SHT31;67756;51.982;5.648;2024-01-30T09:19:19;11.9;70.7
78463;SHT31;67756;51.982;5.648;2024-01-30T09:21:47;11.9;70.7
78463;SHT31;67756;51.982;5.648;2024-01-30T09:24:16;12.0;70.7
78463;SHT31;67756;51.982;5.648;2024-01-30T09:26:44;12.0;70.7
78463;SHT31;67756;51.982;5.648;2024-01-30T09:29:13;12.0;70.7
78463;SHT31;67756;51.982;5.648;2024-01-30T09:31:45;12.0;70.8
78463;SHT31;67756;51.982;5.648;2024-01-30T09:34:13;12.0;71.0
78463;SHT31;67756;51.982;5.648;2024-01-30T09:36:42;12.0;71.2
78463;SHT31;67756;51.982;5.648;2024-01-30T09:39:11;12.0;71.2
78463;SHT31;67756;51.982;5.648;2024-01-30T09:41:48;12.0;71.3
78463;SHT31;67756;51.982;5.648;2024-01-30T09:44:20;12.1;71.2
78463;SHT31;67756;51.982;5.648;2024-01-30T09:46:50;12.1;71.4
78463;SHT31;67756;51.982;5.648;2024-01-30T09:49:20;12.1;71.5
78463;SHT31;67756;51.982;5.648;2024-01-30T09:51:53;12.1;71.7
78463;SHT31;67756;51.982;5.648;2024-01-30T09:54:23;12.1;71.8
78463;SHT31;67756;51.982;5.648;2024-01-30T09:56:53;12.1;71.9
78463;SHT31;67756;51.982;5.648;2024-01-30T09:59:22;12.1;71.9
78463;SHT31;67756;51.982;5.648;2024-01-30T10:01:51;12.2;72.1
78463;SHT31;67756;51.982;5.648;2024-01-30T10:04:21;12.2;71.8
78463;SHT31;67756;51.982;5.648;2024-01-30T10:06:51;12.3;71.7
78463;SHT31;67756;51.982;5.648;2024-01-30T10:09:19;12.3;71.8
78463;SHT31;67756;51.982;5.648;2024-01-30T10:11:48;12.3;71.7
78463;SHT31;67756;51.982;5.648;2024-01-30T10:14:17;12.3;71.7
78463;SHT31;67756;51.982;5.648;2024-01-30T10:16:47;12.4;71.8
78463;SHT31;67756;51.982;5.648;2024-01-30T10:19:17;12.4;71.8
78463;SHT31;67756;51.982;5.648;2024-01-30T10:21:46;12.4;71.9
78463;SHT31;67756;51.982;5.648;2024-01-30T10:24:14;12.5;71.7
78463;SHT31;67756;51.982;5.648;2024-01-30T10:26:45;12.5;71.5
78463;SHT31;67756;51.982;5.648;2024-01-30T10:29:13;12.6;71.1
78463;SHT31;67756;51.982;5.648;2024-01-30T10:31:42;12.7;70.8
78463;SHT31;67756;51.982;5.648;2024-01-30T10:34:11;12.7;70.6
78463;SHT31;67756;51.982;5.648;2024-01-30T10:36:40;12.8;70.1
78463;SHT31;67756;51.982;5.648;2024-01-30T10:39:11;12.9;69.8
78463;SHT31;67756;51.982;5.648;2024-01-30T10:41:43;12.9;69.5
78463;SHT31;67756;51.982;5.648;2024-01-30T10:44:19;13.0;69.0
78463;SHT31;67756;51.982;5.648;2024-01-30T10:47:02;13.0;68.6
78463;SHT31;67756;51.982;5.648;2024-01-30T10:49:33;13.1;68.6
78463;SHT31;67756;51.982;5.648;2024-01-30T10:52:04;13.1;68.8
78463;SHT31;67756;51.982;5.648;2024-01-30T10:54:35;13.1;68.8
78463;SHT31;67756;51.982;5.648;2024-01-30T10:57:05;13.1;68.9
78463;SHT31;67756;51.982;5.648;2024-01-30T10:59:35;13.2;69.4
78463;SHT31;67756;51.982;5.648;2024-01-30T11:02:05;13.3;68.7
78463;SHT31;67756;51.982;5.648;2024-01-30T11:04:40;13.4;68.1
78463;SHT31;67756;51.982;5.648;2024-01-30T11:07:23;13.5;67.8
78463;SHT31;67756;51.982;5.648;2024-01-30T11:09:53;13.6;67.3
78463;SHT31;67756;51.982;5.648;2024-01-30T11:12:25;13.7;66.9
78463;SHT31;67756;51.982;5.648;2024-01-30T11:15:03;13.7;66.6
78463;SHT31;67756;51.982;5.648;2024-01-30T11:17:44;13.7;66.6
78463;SHT31;67756;51.982;5.648;2024-01-30T11:20:15;13.8;66.3
78463;SHT31;67756;51.982;5.648;2024-01-30T11:22:48;13.9;66.1
78463;SHT31;67756;51.982;5.648;2024-01-30T11:25:19;13.9;65.6
78463;SHT31;67756;51.982;5.648;2024-01-30T11:27:50;13.9;65.6
78463;SHT31;67756;51.982;5.648;2024-01-30T11:30:23;14.0;65.6
78463;SHT31;67756;51.982;5.648;2024-01-30T11:33:03;14.0;65.7
78463;SHT31;67756;51.982;5.648;2024-01-30T11:35:35;14.0;66.1
78463;SHT31;67756;51.982;5.648;2024-01-30T11:38:07;14.0;66.0
78463;SHT31;67756;51.982;5.648;2024-01-30T11:40:37;14.1;65.6
78463;SHT31;67756;51.982;5.648;2024-01-30T11:43:08;14.1;65.2
78463;SHT31;67756;51.982;5.648;2024-01-30T11:45:37;14.1;64.9
78463;SHT31;67756;51.982;5.648;2024-01-30T11:48:07;14.1;65.1
78463;SHT31;67756;51.982;5.648;2024-01-30T11:50:38;14.1;65.5
78463;SHT31;67756;51.982;5.648;2024-01-30T11:53:08;14.1;65.5
78463;SHT31;67756;51.982;5.648;2024-01-30T11:55:36;14.1;64.5
78463;SHT31;67756;51.982;5.648;2024-01-30T11:58:05;14.1;63.9
78463;SHT31;67756;51.982;5.648;2024-01-30T12:00:35;14.1;63.8
78463;SHT31;67756;51.982;5.648;2024-01-30T12:03:03;14.1;63.3
78463;SHT31;67756;51.982;5.648;2024-01-30T12:05:33;14.0;62.9
78463;SHT31;67756;51.982;5.648;2024-01-30T12:08:03;13.9;62.9
78463;SHT31;67756;51.982;5.648;2024-01-30T12:10:31;13.9;62.6
78463;SHT31;67756;51.982;5.648;2024-01-30T12:13:01;13.8;62.7
78463;SHT31;67756;51.982;5.648;2024-01-30T12:15:31;13.7;63.1
78463;SHT31;67756;51.982;5.648;2024-01-30T12:18:07;13.7;63.3
78463;SHT31;67756;51.982;5.648;2024-01-30T12:20:36;13.6;63.6
78463;SHT31;67756;51.982;5.648;2024-01-30T12:23:04;13.6;63.5
78463;SHT31;67756;51.982;5.648;2024-01-30T12:25:36;13.6;63.9
78463;SHT31;67756;51.982;5.648;2024-01-30T12:28:05;13.6;63.4
78463;SHT31;67756;51.982;5.648;2024-01-30T12:30:35;13.6;64.0
78463;SHT31;67756;51.982;5.648;2024-01-30T12:33:03;13.6;63.7
78463;SHT31;67756;51.982;5.648;2024-01-30T12:35:34;13.5;62.2
78463;SHT31;67756;51.982;5.648;2024-01-30T12:38:03;13.5;61.8
78463;SHT31;67756;51.982;5.648;2024-01-30T12:40:33;13.5;61.5
78463;SHT31;67756;51.982;5.648;2024-01-30T12:43:02;13.5;61.7
78463;SHT31;67756;51.982;5.648;2024-01-30T12:45:31;13.4;61.5
78463;SHT31;67756;51.982;5.648;2024-01-30T12:48:00;13.4;61.6
78463;SHT31;67756;51.982;5.648;2024-01-30T12:50:28;13.4;62.0
78463;SHT31;67756;51.982;5.648;2024-01-30T12:52:57;13.4;61.6
78463;SHT31;67756;51.982;5.648;2024-01-30T12:55:26;13.4;62.1
78463;SHT31;67756;51.982;5.648;2024-01-30T12:57:56;13.4;61.7
78463;SHT31;67756;51.982;5.648;2024-01-30T13:00:25;13.4;60.8
78463;SHT31;67756;51.982;5.648;2024-01-30T13:02:54;13.4;60.5
78463;SHT31;67756;51.982;5.648;2024-01-30T13:05:24;13.4;60.2
78463;SHT31;67756;51.982;5.648;2024-01-30T13:07:55;13.4;59.8
78463;SHT31;67756;51.982;5.648;2024-01-30T13:10:24;13.4;60.2
78463;SHT31;67756;51.982;5.648;2024-01-30T13:12:52;13.3;59.9
78463;SHT31;67756;51.982;5.648;2024-01-30T13:15:21;13.3;60.5
78463;SHT31;67756;51.982;5.648;2024-01-30T13:17:50;13.2;61.7
78463;SHT31;67756;51.982;5.648;2024-01-30T13:20:22;13.1;62.2
78463;SHT31;67756;51.982;5.648;2024-01-30T13:22:51;13.1;62.6
78463;SHT31;67756;51.982;5.648;2024-01-30T13:25:20;13.0;62.8
78463;SHT31;67756;51.982;5.648;2024-01-30T13:27:48;12.9;62.8
78463;SHT31;67756;51.982;5.648;2024-01-30T13:30:17;12.8;62.9
78463;SHT31;67756;51.982;5.648;2024-01-30T13:32:46;12.8;63.0
78463;SHT31;67756;51.982;5.648;2024-01-30T13:35:14;12.7;62.8
78463;SHT31;67756;51.982;5.648;2024-01-30T13:37:43;12.6;63.2
78463;SHT31;67756;51.982;5.648;2024-01-30T13:40:16;12.5;63.0
78463;SHT31;67756;51.982;5.648;2024-01-30T13:42:44;12.5;63.3
78463;SHT31;67756;51.982;5.648;2024-01-30T13:45:14;12.4;63.7
78463;SHT31;67756;51.982;5.648;2024-01-30T13:47:43;12.4;63.6
78463;SHT31;67756;51.982;5.648;2024-01-30T13:50:11;12.3;63.9
78463;SHT31;67756;51.982;5.648;2024-01-30T13:52:43;12.3;63.7
78463;SHT31;67756;51.982;5.648;2024-01-30T13:55:12;12.2;64.2
78463;SHT31;67756;51.982;5.648;2024-01-30T13:57:41;12.2;64.5
78463;SHT31;67756;51.982;5.648;2024-01-30T14:00:10;12.2;64.4
78463;SHT31;67756;51.982;5.648;2024-01-30T14:02:42;12.2;64.7
78463;SHT31;67756;51.982;5.648;2024-01-30T14:05:11;12.2;64.3
78463;SHT31;67756;51.982;5.648;2024-01-30T14:07:41;12.2;64.2
78463;SHT31;67756;51.982;5.648;2024-01-30T14:10:12;12.3;64.0
78463;SHT31;67756;51.982;5.648;2024-01-30T14:12:42;12.3;63.8
78463;SHT31;67756;51.982;5.648;2024-01-30T14:15:12;12.3;63.8
78463;SHT31;67756;51.982;5.648;2024-01-30T14:17:43;12.3;63.9
78463;SHT31;67756;51.982;5.648;2024-01-30T14:20:15;12.3;64.1
78463;SHT31;67756;51.982;5.648;2024-01-30T14:22:44;12.3;64.3
78463;SHT31;67756;51.982;5.648;2024-01-30T14:25:13;12.3;64.7
78463;SHT31;67756;51.982;5.648;2024-01-30T14:27:43;12.3;64.7
78463;SHT31;67756;51.982;5.648;2024-01-30T14:30:12;12.3;64.7
78463;SHT31;67756;51.982;5.648;2024-01-30T14:32:41;12.3;64.7
78463;SHT31;67756;51.982;5.648;2024-01-30T14:35:11;12.3;64.8
78463;SHT31;67756;51.982;5.648;2024-01-30T14:37:39;12.3;64.9
78463;SHT31;67756;51.982;5.648;2024-01-30T14:40:09;12.3;65.2
78463;SHT31;67756;51.982;5.648;2024-01-30T14:42:37;12.3;65.6
78463;SHT31;67756;51.982;5.648;2024-01-30T14:45:07;12.2;65.6
78463;SHT31;67756;51.982;5.648;2024-01-30T14:47:36;12.2;65.8
78463;SHT31;67756;51.982;5.648;2024-01-30T14:50:06;12.2;65.9
78463;SHT31;67756;51.982;5.648;2024-01-30T14:52:35;12.2;66.0
78463;SHT31;67756;51.982;5.648;2024-01-30T14:55:06;12.2;66.1
78463;SHT31;67756;51.982;5.648;2024-01-30T14:57:36;12.2;65.5
78463;SHT31;67756;51.982;5.648;2024-01-30T15:00:09;12.2;65.6
78463;SHT31;67756;51.982;5.648;2024-01-30T15:02:38;12.2;65.7
78463;SHT31;67756;51.982;5.648;2024-01-30T15:05:07;12.2;65.5
78463;SHT31;67756;51.982;5.648;2024-01-30T15:07:37;12.2;65.6
78463;SHT31;67756;51.982;5.648;2024-01-30T15:10:06;12.1;65.5
78463;SHT31;67756;51.982;5.648;2024-01-30T15:12:36;12.1;65.9
78463;SHT31;67756;51.982;5.648;2024-01-30T15:15:07;12.1;66.0
78463;SHT31;67756;51.982;5.648;2024-01-30T15:17:36;12.1;65.8
78463;SHT31;67756;51.982;5.648;2024-01-30T15:20:05;12.1;65.9
78463;SHT31;67756;51.982;5.648;2024-01-30T15:22:34;12.1;66.1
78463;SHT31;67756;51.982;5.648;2024-01-30T15:25:03;12.1;66.3
78463;SHT31;67756;51.982;5.648;2024-01-30T15:27:32;12.1;66.4
78463;SHT31;67756;51.982;5.648;2024-01-30T15:30:00;12.0;67.2
78463;SHT31;67756;51.982;5.648;2024-01-30T15:32:29;12.0;67.2
78463;SHT31;67756;51.982;5.648;2024-01-30T15:35:00;11.9;67.4
78463;SHT31;67756;51.982;5.648;2024-01-30T15:37:30;11.8;67.7
78463;SHT31;67756;51.982;5.648;2024-01-30T15:39:58;11.8;68.1
78463;SHT31;67756;51.982;5.648;2024-01-30T15:42:28;11.7;69.0
78463;SHT31;67756;51.982;5.648;2024-01-30T15:44:56;11.6;69.1
78463;SHT31;67756;51.982;5.648;2024-01-30T15:47:25;11.6;69.4
78463;SHT31;67756;51.982;5.648;2024-01-30T15:49:54;11.5;69.8
78463;SHT31;67756;51.982;5.648;2024-01-30T15:52:22;11.4;70.1
78463;SHT31;67756;51.982;5.648;2024-01-30T15:54:51;11.4;70.3
78463;SHT31;67756;51.982;5.648;2024-01-30T15:57:19;11.4;70.6
78463;SHT31;67756;51.982;5.648;2024-01-30T15:59:48;11.4;70.6
78463;SHT31;67756;51.982;5.648;2024-01-30T16:02:16;11.4;70.7
78463;SHT31;67756;51.982;5.648;2024-01-30T16:04:46;11.4;70.5
78463;SHT31;67756;51.982;5.648;2024-01-30T16:07:15;11.4;70.6
78463;SHT31;67756;51.982;5.648;2024-01-30T16:09:44;11.3;71.0
78463;SHT31;67756;51.982;5.648;2024-01-30T16:12:12;11.3;70.9
78463;SHT31;67756;51.982;5.648;2024-01-30T16:14:41;11.3;71.0
78463;SHT31;67756;51.982;5.648;2024-01-30T16:17:10;11.3;71.3